METAR Data
IDs: Format: Raw Decoded Include TAF

Data at: 1008 UTC 18 Jan 2019

PARY 180956Z AUTO 08011KT 10SM CLR M19/M23 A2988 RMK AO2 SLP152 T11891228 FZRANO
PARY 180856Z AUTO 07009KT 10SM CLR M18/M22 A2988 RMK AO2 SLP149 T11831222 53004 FZRANO
PARY 180756Z AUTO 07011KT 10SM CLR M18/M22 A2987 RMK AO2 SLP147 T11831222 411441183 FZRANO
PARY 180656Z AUTO 08009KT 10SM CLR M18/M22 A2987 RMK AO2 SLP147 T11831222 FZRANO
PARY 180556Z AUTO 07010KT 10SM CLR M18/M22 A2987 RMK AO2 SLP146 T11831222 11167 21183 53003 FZRANO
PARY 180456Z AUTO 08009KT 10SM CLR M18/M22 A2986 RMK AO2 SLP143 T11781222 FZRANO
PARY 180356Z AUTO 09011KT 10SM CLR M18/M22 A2986 RMK AO2 SLP142 T11781217 FZRANO
PARY 180256Z AUTO 08009KT 10SM CLR M18/M22 A2986 RMK AO2 SLP142 T11781217 55001 FZRANO
PARY 180156Z AUTO 08011KT 10SM CLR M17/M21 A2985 RMK AO2 SLP138 T11671211 FZRANO
PARY 180056Z AUTO 09009KT 10SM CLR M17/M21 A2986 RMK AO2 SLP140 T11671211 FZRANO
PARY 172356Z AUTO 08010KT 10SM CLR M17/M21 A2986 RMK AO2 SLP141 T11671211 11167 21172 55001 FZRANO
PARY 172256Z AUTO 08012KT 10SM CLR M17/M21 A2986 RMK AO2 SLP141 T11671206 FZRANO
PARY 172156Z AUTO 08011G17KT 10SM CLR M17/M21 A2986 RMK AO2 SLP142 T11671206 FZRANO
PARY 172056Z AUTO 07010KT 10SM CLR M17/M21 A2986 RMK AO2 SLP143 T11671206 53002 FZRANO
PARY 171956Z AUTO 08013KT 10SM CLR M17/M21 A2986 RMK AO2 SLP140 T11721211 FZRANO
PARY 171856Z AUTO 07011KT 10SM CLR M17/M21 A2986 RMK AO2 SLP141 T11721211 FZRANO
PARY 171756Z AUTO 06008KT 10SM CLR M17/M21 A2986 RMK AO2 SLP141 T11721206 11144 21172 53005 FZRANO
PARY 171656Z AUTO 07011KT 10SM CLR M17/M21 A2985 RMK AO2 SLP136 T11671206 FZRANO
PARY 171556Z AUTO 07012KT 10SM CLR M16/M20 A2984 RMK AO2 SLP137 T11611200 FZRANO
PARY 171456Z AUTO 08013KT 10SM CLR M16/M19 A2984 RMK AO2 SLP138 T11561194 55002 FZRANO
PARY 171356Z AUTO 08015KT 10SM CLR M15/M19 A2984 RMK AO2 SLP137 T11501189 FZRANO
PARY 171256Z AUTO 08014G20KT 10SM SCT120 M14/M19 A2985 RMK AO2 SLP139 T11441189 FZRANO
PARY 171156Z AUTO 07011KT 10SM FEW120 M15/M19 A2985 RMK AO2 SLP139 T11501189 11144 21150 50002 FZRANO
PARY 171056Z AUTO 08013KT 10SM CLR M14/M19 A2985 RMK AO2 SLP139 T11441189 FZRANO
PARY 170956Z AUTO 07011KT 10SM CLR M15/M19 A2985 RMK AO2 SLP139 T11501189 FZRANO
PARY 170856Z AUTO 07014G19KT 10SM CLR M15/M19 A2984 RMK AO2 SLP138 T11501189 51006 FZRANO
PARY 170756Z AUTO 07014KT 10SM CLR M14/M18 A2984 RMK AO2 SLP137 T11441183 411331172 FZRANO
PARY 170656Z AUTO 07011KT 10SM CLR M15/M18 A2984 RMK AO2 SLP134 T11501183 FZRANO
PARY 170556Z AUTO 08014G20KT 10SM CLR M14/M18 A2982 RMK AO2 SLP129 T11441183 11139 21150 53002 FZRANO
PARY 170456Z AUTO 08016G23KT 10SM CLR M14/M18 A2981 RMK AO2 SLP127 T11441183 FZRANO
PARY 170356Z AUTO 08016G21KT 10SM CLR M14/M18 A2981 RMK AO2 SLP127 T11441183 FZRANO
PARY 170256Z AUTO 07013G19KT 10SM CLR M14/M18 A2982 RMK AO2 PK WND 08026/0212 SLP129 T11441178 53005 FZRANO
PARY 170156Z AUTO 08019G24KT 10SM CLR M14/M18 A2981 RMK AO2 SLP125 T11391178 FZRANO
PARY 170056Z AUTO 07014KT 10SM CLR M14/M18 A2981 RMK AO2 SLP125 T11441178 FZRANO
PARY 162356Z AUTO 08018KT 10SM CLR M14/M18 A2980 RMK AO2 PK WND 09027/2340 SLP123 T11391178 11133 21172 56009 FZRANO
PARY 162256Z AUTO 08018KT 10SM CLR M14/M18 A2981 RMK AO2 PK WND 08026/2216 SLP126 T11441178 FZRANO